Wildwood Camp, Iowa
Current Conditions -  °F | °C
As of 8:52 AM on Friday 19 Dec 2014 (Local Time) from KDVN Reporting Station
Overcast Overcast  
Wind Chill: 24°   Ceiling: 7000
Heat Index: 24°   Visibility: 9mi
Dew Point: 19°   Wind: 3mph
Humidity: 81%   Direction: 120°ESE
Pressure: 30.32"   Gusts: NA
Location:  41.7317°N, 90.5411°W
Report Text: KDVN 191452Z AUTO 12003KT 9SM OVC070 M04/M07 A3032 RMK AO2 SLP279 T10441072 53007
Loading
Personal Weather Stations






























Interactive Weather Map New forecast layout! Learn more

10-Day Weather Forecast

Advertisements
Track Severe Weather on mobile